LGL731 ELLX-GCFV
Flight info
| Callsign | LGL731 |
|---|---|
| Flight time | N/A |
| Altitude | 33000 |
| Route | RAPOR DCT GIMER DCT BSN DCT ESTOC UT300 PON UN872 ERIGA UZ218 FUJTI DCT BAKUP DCT BATAX/N0445F350 DCT MORAS DCT TAKAV DCT VEDOD UN857 TERTO |
| Aircraft | B738/M-SDE2E3FGHIRWXY/LB1 |
Departure
| Time | 2026-04-30 11:36 |
|---|---|
| Airport | Luxembourg-Findel International Airport (ELLX) |
Arrival
| Time | N/A |
|---|---|
| Airport | Fuerteventura Airport (GCFV) |
| Time | Latitude | Longitude | Altitude | Speed | Heading |
|---|---|---|---|---|---|
| 2026-04-30 11:04 | 49.63370 | 6.21738 | 1194 ft | 0 kts | 330° |
| 2026-04-30 11:25 | 49.63349 | 6.21759 | 1194 ft | 3 kts | 315° |
| 2026-04-30 11:26 | 49.63335 | 6.21821 | 1194 ft | 3 kts | 243° |
| 2026-04-30 11:26 | 49.63338 | 6.21831 | 1194 ft | 0 kts | 241° |
| 2026-04-30 11:29 | 49.63334 | 6.21821 | 1194 ft | 2 kts | 236° |
| 2026-04-30 11:29 | 49.63238 | 6.21865 | 1195 ft | 12 kts | 147° |
| 2026-04-30 11:30 | 49.63120 | 6.21781 | 1196 ft | 13 kts | 245° |
| 2026-04-30 11:30 | 49.63078 | 6.21646 | 1196 ft | 15 kts | 244° |
| 2026-04-30 11:30 | 49.63031 | 6.21494 | 1195 ft | 17 kts | 244° |
| 2026-04-30 11:31 | 49.62978 | 6.21323 | 1195 ft | 19 kts | 244° |
| 2026-04-30 11:31 | 49.62919 | 6.21136 | 1195 ft | 20 kts | 244° |
| 2026-04-30 11:31 | 49.62857 | 6.20935 | 1195 ft | 21 kts | 245° |
| 2026-04-30 11:31 | 49.62782 | 6.20733 | 1195 ft | 22 kts | 227° |
| 2026-04-30 11:32 | 49.62668 | 6.20585 | 1197 ft | 21 kts | 222° |
| 2026-04-30 11:32 | 49.62564 | 6.20428 | 1198 ft | 21 kts | 226° |
| 2026-04-30 11:32 | 49.62477 | 6.20257 | 1199 ft | 20 kts | 240° |
| 2026-04-30 11:33 | 49.62340 | 6.19867 | 1197 ft | 22 kts | 240° |
| 2026-04-30 11:33 | 49.62261 | 6.19652 | 1195 ft | 24 kts | 240° |
| 2026-04-30 11:33 | 49.62176 | 6.19424 | 1194 ft | 25 kts | 240° |
| 2026-04-30 11:33 | 49.62086 | 6.19181 | 1193 ft | 26 kts | 240° |
| 2026-04-30 11:34 | 49.61997 | 6.18944 | 1192 ft | 25 kts | 240° |
| 2026-04-30 11:34 | 49.61921 | 6.18772 | 1191 ft | 15 kts | 229° |
| 2026-04-30 11:34 | 49.61821 | 6.18728 | 1184 ft | 18 kts | 163° |
| 2026-04-30 11:34 | 49.61797 | 6.18870 | 1183 ft | 10 kts | 57° |
| 2026-04-30 11:35 | 49.61798 | 6.18873 | 1183 ft | 0 kts | 57° |
| 2026-04-30 11:35 | 49.61875 | 6.19080 | 1187 ft | 54 kts | 62° |
| 2026-04-30 11:35 | 49.62166 | 6.19864 | 1203 ft | 112 kts | 60° |
| 2026-04-30 11:35 | 49.62633 | 6.21141 | 1247 ft | 159 kts | 60° |
| 2026-04-30 11:36 | 49.63221 | 6.22703 | 1714 ft | 170 kts | 59° |
| 2026-04-30 11:36 | 49.63837 | 6.24201 | 2658 ft | 168 kts | 58° |
| 2026-04-30 11:36 | 49.64450 | 6.25789 | 3176 ft | 182 kts | 64° |
| 2026-04-30 11:36 | 49.65099 | 6.27617 | 3396 ft | 204 kts | 65° |
| 2026-04-30 11:37 | 49.65816 | 6.29622 | 3734 ft | 218 kts | 65° |
| 2026-04-30 11:37 | 49.66575 | 6.31713 | 4090 ft | 232 kts | 65° |
| 2026-04-30 11:37 | 49.67398 | 6.33962 | 4458 ft | 246 kts | 64° |
| 2026-04-30 11:37 | 49.68269 | 6.36261 | 5200 ft | 251 kts | 59° |
| 2026-04-30 11:38 | 49.69592 | 6.38094 | 5932 ft | 264 kts | 33° |
| 2026-04-30 11:38 | 49.71364 | 6.38999 | 6618 ft | 276 kts | 12° |
| 2026-04-30 11:38 | 49.73307 | 6.38808 | 7257 ft | 287 kts | 348° |
| 2026-04-30 11:38 | 49.75090 | 6.37344 | 7905 ft | 298 kts | 320° |
| 2026-04-30 11:39 | 49.76322 | 6.34754 | 8563 ft | 304 kts | 293° |
| 2026-04-30 11:39 | 49.76737 | 6.31555 | 9169 ft | 308 kts | 266° |
| 2026-04-30 11:39 | 49.76256 | 6.28382 | 9764 ft | 307 kts | 242° |
| 2026-04-30 11:39 | 49.75183 | 6.25498 | 10390 ft | 307 kts | 234° |
| 2026-04-30 11:40 | 49.74000 | 6.22731 | 10977 ft | 309 kts | 234° |
| 2026-04-30 11:40 | 49.72814 | 6.19941 | 11568 ft | 313 kts | 234° |
| 2026-04-30 11:40 | 49.71601 | 6.17031 | 11761 ft | 333 kts | 235° |
| 2026-04-30 11:40 | 49.70334 | 6.13917 | 11937 ft | 352 kts | 236° |
| 2026-04-30 11:41 | 49.69015 | 6.10642 | 12259 ft | 364 kts | 236° |
| 2026-04-30 11:41 | 49.67669 | 6.07287 | 12740 ft | 370 kts | 236° |
| 2026-04-30 11:41 | 49.66323 | 6.03933 | 13315 ft | 374 kts | 236° |
| 2026-04-30 11:41 | 49.64946 | 6.00510 | 13984 ft | 376 kts | 236° |
| 2026-04-30 11:42 | 49.63562 | 5.97078 | 14622 ft | 377 kts | 236° |
| 2026-04-30 11:42 | 49.62163 | 5.93620 | 15140 ft | 383 kts | 236° |
| 2026-04-30 11:42 | 49.60934 | 5.89946 | 15622 ft | 391 kts | 252° |
| 2026-04-30 11:42 | 49.60535 | 5.85808 | 16268 ft | 392 kts | 269° |
| 2026-04-30 11:43 | 49.60600 | 5.81595 | 16870 ft | 395 kts | 272° |
| 2026-04-30 11:43 | 49.60685 | 5.77316 | 17292 ft | 404 kts | 271° |
| 2026-04-30 11:43 | 49.60744 | 5.72988 | 17885 ft | 406 kts | 270° |
| 2026-04-30 11:43 | 49.60780 | 5.68602 | 18352 ft | 412 kts | 270° |
| 2026-04-30 11:44 | 49.60804 | 5.64193 | 18955 ft | 412 kts | 270° |
| 2026-04-30 11:44 | 49.60827 | 5.59764 | 19475 ft | 414 kts | 270° |
| 2026-04-30 11:44 | 49.60776 | 5.55314 | 19932 ft | 415 kts | 266° |
| 2026-04-30 11:44 | 49.60561 | 5.50871 | 20392 ft | 419 kts | 265° |
| 2026-04-30 11:45 | 49.60322 | 5.46342 | 20748 ft | 425 kts | 265° |
| 2026-04-30 11:45 | 49.60099 | 5.41804 | 21330 ft | 425 kts | 266° |
| 2026-04-30 11:45 | 49.59880 | 5.37256 | 21783 ft | 428 kts | 265° |
| 2026-04-30 11:45 | 49.59657 | 5.32654 | 22198 ft | 432 kts | 265° |
| 2026-04-30 11:46 | 49.59431 | 5.28008 | 22557 ft | 437 kts | 265° |
| 2026-04-30 11:46 | 49.59201 | 5.23332 | 23053 ft | 439 kts | 265° |
| 2026-04-30 11:46 | 49.58823 | 5.18661 | 23539 ft | 440 kts | 258° |
| 2026-04-30 11:46 | 49.58087 | 5.14066 | 23890 ft | 444 kts | 254° |
| 2026-04-30 11:47 | 49.57228 | 5.09471 | 24206 ft | 447 kts | 252° |
| 2026-04-30 11:47 | 49.56338 | 5.04878 | 24664 ft | 447 kts | 252° |
| 2026-04-30 11:47 | 49.55456 | 5.00281 | 25046 ft | 449 kts | 253° |
| 2026-04-30 11:47 | 49.54585 | 4.95634 | 25321 ft | 454 kts | 253° |
| 2026-04-30 11:48 | 49.53729 | 4.90961 | 25752 ft | 453 kts | 253° |
| 2026-04-30 11:48 | 49.52885 | 4.86289 | 26190 ft | 453 kts | 253° |
| 2026-04-30 11:48 | 49.52043 | 4.81596 | 26473 ft | 457 kts | 253° |
| 2026-04-30 11:48 | 49.51196 | 4.76870 | 26770 ft | 460 kts | 253° |
| 2026-04-30 11:49 | 49.50343 | 4.72121 | 27128 ft | 461 kts | 253° |
| 2026-04-30 11:49 | 49.49484 | 4.67354 | 27452 ft | 463 kts | 253° |
| 2026-04-30 11:49 | 49.48620 | 4.62574 | 27761 ft | 465 kts | 253° |
| 2026-04-30 11:49 | 49.47748 | 4.57762 | 28091 ft | 467 kts | 253° |
| 2026-04-30 11:50 | 49.46872 | 4.52948 | 28393 ft | 469 kts | 253° |
| 2026-04-30 11:50 | 49.45989 | 4.48112 | 28682 ft | 471 kts | 253° |
| 2026-04-30 11:50 | 49.45100 | 4.43250 | 29009 ft | 472 kts | 252° |
| 2026-04-30 11:50 | 49.44209 | 4.38388 | 29315 ft | 474 kts | 252° |
| 2026-04-30 11:51 | 49.43324 | 4.33577 | 29654 ft | 475 kts | 252° |
| 2026-04-30 11:51 | 49.42426 | 4.28709 | 30058 ft | 473 kts | 252° |
| 2026-04-30 11:51 | 49.41529 | 4.23854 | 30465 ft | 471 kts | 252° |
| 2026-04-30 11:51 | 49.40634 | 4.19023 | 30817 ft | 470 kts | 252° |
| 2026-04-30 11:52 | 49.39739 | 4.14206 | 31121 ft | 469 kts | 252° |
| 2026-04-30 11:52 | 49.38844 | 4.09398 | 31405 ft | 469 kts | 252° |
| 2026-04-30 11:52 | 49.37946 | 4.04583 | 31729 ft | 468 kts | 252° |
| 2026-04-30 11:52 | 49.37050 | 3.99797 | 32052 ft | 467 kts | 252° |
| 2026-04-30 11:53 | 49.36150 | 3.95013 | 32365 ft | 466 kts | 252° |
| 2026-04-30 11:53 | 49.35245 | 3.90243 | 32644 ft | 465 kts | 252° |
| 2026-04-30 11:53 | 49.34337 | 3.85486 | 32936 ft | 464 kts | 252° |
| 2026-04-30 11:53 | 49.33428 | 3.80739 | 33224 ft | 464 kts | 251° |
| 2026-04-30 11:54 | 49.31593 | 3.71183 | 33221 ft | 469 kts | 251° |
| 2026-04-30 11:54 | 49.29755 | 3.61636 | 33201 ft | 463 kts | 251° |
| 2026-04-30 11:55 | 49.27931 | 3.52209 | 33215 ft | 461 kts | 251° |
| 2026-04-30 11:55 | 49.26101 | 3.42801 | 33206 ft | 461 kts | 251° |
| 2026-04-30 11:56 | 49.24267 | 3.33417 | 33212 ft | 460 kts | 251° |
| 2026-04-30 11:56 | 49.22426 | 3.24041 | 33203 ft | 460 kts | 251° |
| 2026-04-30 11:57 | 49.20581 | 3.14684 | 33203 ft | 459 kts | 251° |
| 2026-04-30 11:57 | 49.18763 | 3.05311 | 33195 ft | 461 kts | 254° |
| 2026-04-30 11:58 | 49.17805 | 2.95609 | 33192 ft | 463 kts | 261° |
| 2026-04-30 11:58 | 49.17061 | 2.85844 | 33193 ft | 463 kts | 261° |
| 2026-04-30 11:59 | 49.16256 | 2.76078 | 33154 ft | 463 kts | 261° |
| 2026-04-30 11:59 | 49.15403 | 2.66313 | 33119 ft | 463 kts | 261° |
| 2026-04-30 12:00 | 49.14537 | 2.56558 | 33118 ft | 464 kts | 260° |
| 2026-04-30 12:00 | 49.13664 | 2.46773 | 33125 ft | 465 kts | 260° |
| 2026-04-30 12:01 | 49.12779 | 2.36982 | 33127 ft | 466 kts | 259° |
| 2026-04-30 12:01 | 49.11857 | 2.27195 | 33122 ft | 466 kts | 259° |
| 2026-04-30 12:02 | 49.10924 | 2.17410 | 33107 ft | 466 kts | 259° |
| 2026-04-30 12:02 | 49.09988 | 2.07634 | 33102 ft | 465 kts | 259° |
| 2026-04-30 12:03 | 49.06821 | 1.93921 | 33115 ft | 455 kts | 242° |
| 2026-04-30 12:04 | 49.04118 | 1.85210 | 33160 ft | 454 kts | 242° |
| 2026-04-30 12:04 | 49.01449 | 1.76503 | 33158 ft | 452 kts | 242° |
| 2026-04-30 12:05 | 48.98816 | 1.67828 | 33129 ft | 451 kts | 242° |
| 2026-04-30 12:05 | 48.96192 | 1.59186 | 33126 ft | 449 kts | 242° |
| 2026-04-30 12:06 | 48.93573 | 1.50589 | 33121 ft | 447 kts | 242° |
| 2026-04-30 12:06 | 48.90956 | 1.42035 | 33115 ft | 446 kts | 242° |
| 2026-04-30 12:07 | 48.88351 | 1.33549 | 33111 ft | 445 kts | 242° |
| 2026-04-30 12:07 | 48.85710 | 1.24976 | 33114 ft | 445 kts | 242° |
| 2026-04-30 12:08 | 48.83094 | 1.16516 | 33115 ft | 445 kts | 242° |
| 2026-04-30 12:08 | 48.80458 | 1.08013 | 33119 ft | 445 kts | 242° |
| 2026-04-30 12:09 | 48.77816 | 0.99521 | 33118 ft | 446 kts | 242° |
| 2026-04-30 12:09 | 48.75164 | 0.91025 | 33124 ft | 446 kts | 242° |
| 2026-04-30 12:10 | 48.72209 | 0.82803 | 33131 ft | 443 kts | 236° |
| 2026-04-30 12:10 | 48.68930 | 0.74895 | 33115 ft | 443 kts | 235° |
| 2026-04-30 12:11 | 48.65651 | 0.66993 | 33109 ft | 443 kts | 236° |
| 2026-04-30 12:11 | 48.62405 | 0.59065 | 33115 ft | 443 kts | 236° |
| 2026-04-30 12:12 | 48.59174 | 0.51145 | 33103 ft | 442 kts | 236° |
| 2026-04-30 12:12 | 48.56490 | 0.44577 | 33100 ft | 442 kts | 236° |
| 2026-04-30 12:13 | 48.53265 | 0.36711 | 33104 ft | 440 kts | 236° |
| 2026-04-30 12:13 | 48.50048 | 0.28895 | 33096 ft | 438 kts | 236° |
| 2026-04-30 12:14 | 48.46848 | 0.21120 | 33091 ft | 435 kts | 236° |
| 2026-04-30 12:14 | 48.43653 | 0.13409 | 33096 ft | 433 kts | 236° |
| 2026-04-30 12:15 | 48.40475 | 0.05738 | 33089 ft | 431 kts | 235° |
| 2026-04-30 12:15 | 48.37294 | -0.01911 | 33269 ft | 430 kts | 237° |
| 2026-04-30 12:15 | 48.35693 | -0.05632 | 33155 ft | 417 kts | 234° |
| 2026-04-30 12:16 | 48.34010 | -0.09102 | 33082 ft | 406 kts | 232° |
| 2026-04-30 12:16 | 48.30599 | -0.15811 | 33088 ft | 406 kts | 232° |
| 2026-04-30 12:17 | 48.25433 | -0.26120 | 33077 ft | 415 kts | 232° |
| 2026-04-30 12:17 | 48.21938 | -0.33000 | 33061 ft | 415 kts | 232° |
| 2026-04-30 12:18 | 48.18441 | -0.39826 | 33046 ft | 415 kts | 232° |
| 2026-04-30 12:18 | 48.14922 | -0.46688 | 33028 ft | 415 kts | 232° |
| 2026-04-30 12:19 | 48.11405 | -0.53538 | 33012 ft | 415 kts | 232° |
| 2026-04-30 12:19 | 48.07886 | -0.60378 | 32998 ft | 414 kts | 232° |
| 2026-04-30 12:20 | 48.04373 | -0.67188 | 32993 ft | 414 kts | 232° |
| 2026-04-30 12:20 | 48.00860 | -0.73985 | 32988 ft | 413 kts | 231° |
| 2026-04-30 12:21 | 47.97351 | -0.80754 | 32994 ft | 411 kts | 231° |
| 2026-04-30 12:21 | 47.93849 | -0.87493 | 33019 ft | 411 kts | 231° |
| 2026-04-30 12:22 | 47.90349 | -0.94213 | 33058 ft | 410 kts | 231° |
| 2026-04-30 12:22 | 47.86853 | -1.00907 | 33048 ft | 408 kts | 231° |
| 2026-04-30 12:23 | 47.83365 | -1.07571 | 33045 ft | 408 kts | 231° |
| 2026-04-30 12:23 | 47.79902 | -1.14169 | 33039 ft | 407 kts | 231° |
| 2026-04-30 12:24 | 47.76402 | -1.20824 | 33037 ft | 405 kts | 231° |
| 2026-04-30 12:24 | 47.72953 | -1.27366 | 33061 ft | 404 kts | 230° |
| 2026-04-30 12:25 | 47.69480 | -1.33936 | 33036 ft | 404 kts | 230° |
| 2026-04-30 12:25 | 47.66004 | -1.40499 | 33026 ft | 404 kts | 230° |
| 2026-04-30 12:26 | 47.62525 | -1.47053 | 33038 ft | 405 kts | 230° |
| 2026-04-30 12:26 | 47.58997 | -1.53563 | 33020 ft | 405 kts | 228° |
| 2026-04-30 12:27 | 47.55239 | -1.59763 | 33021 ft | 404 kts | 226° |
| 2026-04-30 12:27 | 47.51451 | -1.65892 | 33013 ft | 404 kts | 226° |
| 2026-04-30 12:28 | 47.47678 | -1.72046 | 33013 ft | 404 kts | 226° |
| 2026-04-30 12:28 | 47.43917 | -1.78197 | 33001 ft | 404 kts | 226° |
| 2026-04-30 12:29 | 47.40151 | -1.84349 | 32996 ft | 403 kts | 226° |
| 2026-04-30 12:29 | 47.36385 | -1.90477 | 32953 ft | 403 kts | 225° |
| 2026-04-30 12:30 | 47.32044 | -1.95582 | 32965 ft | 399 kts | 210° |
| 2026-04-30 12:30 | 47.27275 | -1.99777 | 32942 ft | 399 kts | 210° |
| 2026-04-30 12:31 | 47.22510 | -2.03987 | 32938 ft | 399 kts | 211° |
| 2026-04-30 12:31 | 47.17757 | -2.08211 | 32965 ft | 400 kts | 211° |
| 2026-04-30 12:32 | 47.13002 | -2.12441 | 32965 ft | 399 kts | 210° |
| 2026-04-30 12:32 | 47.08249 | -2.16661 | 32990 ft | 399 kts | 210° |
| 2026-04-30 12:33 | 47.03497 | -2.20870 | 32991 ft | 399 kts | 210° |
| 2026-04-30 12:33 | 46.98746 | -2.25071 | 32990 ft | 398 kts | 210° |
| 2026-04-30 12:34 | 46.94003 | -2.29256 | 32975 ft | 398 kts | 210° |
| 2026-04-30 12:34 | 46.89267 | -2.33427 | 32988 ft | 397 kts | 210° |
| 2026-04-30 12:35 | 46.84572 | -2.37551 | 32987 ft | 396 kts | 210° |
| 2026-04-30 12:35 | 46.79845 | -2.41701 | 32989 ft | 396 kts | 210° |
| 2026-04-30 12:36 | 46.75124 | -2.45839 | 32994 ft | 396 kts | 210° |
| 2026-04-30 12:36 | 46.70395 | -2.49976 | 32991 ft | 396 kts | 210° |
| 2026-04-30 12:37 | 46.65667 | -2.54104 | 32974 ft | 396 kts | 210° |
| 2026-04-30 12:37 | 46.60937 | -2.58226 | 32984 ft | 396 kts | 210° |
| 2026-04-30 12:38 | 46.56203 | -2.62343 | 32977 ft | 396 kts | 210° |
| 2026-04-30 12:38 | 46.51471 | -2.66449 | 32970 ft | 396 kts | 210° |
| 2026-04-30 12:39 | 46.46738 | -2.70548 | 32976 ft | 396 kts | 210° |
| 2026-04-30 12:39 | 46.42008 | -2.74636 | 32972 ft | 396 kts | 210° |
| 2026-04-30 12:40 | 46.37274 | -2.78720 | 32966 ft | 396 kts | 210° |
| 2026-04-30 12:40 | 46.32565 | -2.82775 | 32963 ft | 397 kts | 210° |
| 2026-04-30 12:41 | 46.27826 | -2.86846 | 32960 ft | 396 kts | 210° |
| 2026-04-30 12:41 | 46.23096 | -2.90933 | 32963 ft | 396 kts | 210° |
| 2026-04-30 12:42 | 46.18386 | -2.95040 | 32958 ft | 395 kts | 210° |
| 2026-04-30 12:42 | 46.13681 | -2.99138 | 32955 ft | 395 kts | 210° |
| 2026-04-30 12:43 | 46.08982 | -3.03219 | 32953 ft | 394 kts | 210° |
| 2026-04-30 12:43 | 46.04285 | -3.07287 | 32948 ft | 394 kts | 210° |
| 2026-04-30 12:44 | 45.99585 | -3.11348 | 32946 ft | 394 kts | 210° |
| 2026-04-30 12:44 | 45.94886 | -3.15401 | 32984 ft | 393 kts | 210° |
| 2026-04-30 12:45 | 45.90169 | -3.19461 | 32946 ft | 396 kts | 210° |
| 2026-04-30 12:45 | 45.85443 | -3.23521 | 32934 ft | 396 kts | 210° |
| 2026-04-30 12:46 | 45.80714 | -3.27575 | 32934 ft | 396 kts | 210° |
| 2026-04-30 12:46 | 45.75983 | -3.31623 | 32928 ft | 396 kts | 210° |
| 2026-04-30 12:47 | 45.71253 | -3.35662 | 32918 ft | 396 kts | 210° |
| 2026-04-30 12:47 | 45.66530 | -3.39688 | 32925 ft | 395 kts | 210° |
| 2026-04-30 12:48 | 45.61844 | -3.43674 | 32920 ft | 395 kts | 210° |
| 2026-04-30 12:48 | 45.57126 | -3.47678 | 32914 ft | 394 kts | 210° |
| 2026-04-30 12:49 | 45.52412 | -3.51672 | 32922 ft | 394 kts | 209° |
| 2026-04-30 12:49 | 45.47699 | -3.55656 | 32918 ft | 394 kts | 209° |
| 2026-04-30 12:50 | 45.42979 | -3.59639 | 32902 ft | 394 kts | 209° |
| 2026-04-30 12:50 | 45.38256 | -3.63617 | 32899 ft | 394 kts | 209° |
| 2026-04-30 12:51 | 45.33530 | -3.67589 | 32893 ft | 395 kts | 209° |
| 2026-04-30 12:51 | 45.28800 | -3.71558 | 32891 ft | 395 kts | 209° |
| 2026-04-30 12:52 | 45.24066 | -3.75521 | 32884 ft | 395 kts | 209° |
| 2026-04-30 12:52 | 45.19334 | -3.79475 | 32885 ft | 395 kts | 209° |
| 2026-04-30 12:53 | 45.14591 | -3.83430 | 32882 ft | 395 kts | 209° |
| 2026-04-30 12:53 | 45.09851 | -3.87376 | 32852 ft | 396 kts | 209° |
| 2026-04-30 12:54 | 45.05094 | -3.91328 | 32850 ft | 396 kts | 209° |
| 2026-04-30 12:54 | 45.00334 | -3.95274 | 32848 ft | 397 kts | 209° |
| 2026-04-30 12:55 | 44.95564 | -3.99221 | 32847 ft | 398 kts | 209° |
| 2026-04-30 12:55 | 44.90802 | -4.03154 | 32891 ft | 396 kts | 208° |
| 2026-04-30 12:56 | 44.86053 | -4.07070 | 32853 ft | 394 kts | 208° |
| 2026-04-30 12:56 | 44.81330 | -4.10955 | 32839 ft | 393 kts | 208° |
| 2026-04-30 12:57 | 44.76650 | -4.14798 | 32841 ft | 391 kts | 208° |
| 2026-04-30 12:57 | 44.71952 | -4.18649 | 32841 ft | 391 kts | 208° |
| 2026-04-30 12:58 | 44.67249 | -4.22497 | 32843 ft | 391 kts | 208° |
| 2026-04-30 12:58 | 44.62543 | -4.26339 | 32842 ft | 392 kts | 208° |
| 2026-04-30 12:59 | 44.57821 | -4.30188 | 32840 ft | 393 kts | 208° |
| 2026-04-30 12:59 | 44.53086 | -4.34039 | 32832 ft | 394 kts | 208° |
| 2026-04-30 13:00 | 44.48342 | -4.37891 | 32846 ft | 394 kts | 208° |
| 2026-04-30 13:00 | 44.43589 | -4.41745 | 32842 ft | 396 kts | 208° |
| 2026-04-30 13:01 | 44.38830 | -4.45641 | 32838 ft | 397 kts | 209° |
| 2026-04-30 13:01 | 44.34113 | -4.49644 | 32842 ft | 397 kts | 209° |
| 2026-04-30 13:02 | 44.29420 | -4.53639 | 32841 ft | 398 kts | 209° |
| 2026-04-30 13:02 | 44.24689 | -4.57648 | 32865 ft | 398 kts | 209° |
| 2026-04-30 13:03 | 44.19947 | -4.61649 | 32849 ft | 399 kts | 209° |
| 2026-04-30 13:03 | 44.15195 | -4.65648 | 32849 ft | 399 kts | 209° |
| 2026-04-30 13:04 | 44.11210 | -4.68995 | 32834 ft | 399 kts | 209° |
| 2026-04-30 13:04 | 44.06485 | -4.72956 | 32851 ft | 399 kts | 209° |
| 2026-04-30 13:05 | 44.01726 | -4.76938 | 32846 ft | 400 kts | 209° |
| 2026-04-30 13:06 | 43.94568 | -4.82915 | 32852 ft | 401 kts | 209° |
| 2026-04-30 13:06 | 43.89784 | -4.86899 | 32847 ft | 401 kts | 209° |
| 2026-04-30 13:07 | 43.84995 | -4.90881 | 32861 ft | 402 kts | 209° |
| 2026-04-30 13:07 | 43.80197 | -4.94861 | 32863 ft | 402 kts | 209° |
| 2026-04-30 13:08 | 43.75385 | -4.98847 | 32867 ft | 403 kts | 209° |
| 2026-04-30 13:08 | 43.70561 | -5.02834 | 32859 ft | 404 kts | 209° |
| 2026-04-30 13:09 | 43.65738 | -5.06813 | 32869 ft | 404 kts | 209° |
| 2026-04-30 13:09 | 43.60904 | -5.10794 | 32876 ft | 404 kts | 209° |
| 2026-04-30 13:10 | 43.56072 | -5.14766 | 32876 ft | 405 kts | 209° |
| 2026-04-30 13:10 | 43.51231 | -5.18737 | 32863 ft | 405 kts | 209° |
| 2026-04-30 13:11 | 43.46392 | -5.22700 | 32881 ft | 405 kts | 209° |
| 2026-04-30 13:11 | 43.41551 | -5.26656 | 32876 ft | 405 kts | 209° |
| 2026-04-30 13:12 | 43.36705 | -5.30609 | 32874 ft | 405 kts | 209° |
| 2026-04-30 13:12 | 43.31851 | -5.34560 | 32896 ft | 405 kts | 209° |
| 2026-04-30 13:13 | 43.24567 | -5.40478 | 32875 ft | 406 kts | 209° |
| 2026-04-30 13:14 | 43.17269 | -5.46389 | 32887 ft | 406 kts | 209° |
| 2026-04-30 13:14 | 43.09964 | -5.52290 | 32886 ft | 407 kts | 209° |
| 2026-04-30 13:15 | 43.02641 | -5.58188 | 32876 ft | 407 kts | 209° |
| 2026-04-30 13:16 | 42.97749 | -5.62120 | 32901 ft | 408 kts | 209° |
| 2026-04-30 13:16 | 42.92847 | -5.66052 | 32885 ft | 409 kts | 209° |
| 2026-04-30 13:17 | 42.87940 | -5.69980 | 32657 ft | 409 kts | 211° |
| 2026-04-30 13:17 | 42.85490 | -5.71935 | 32797 ft | 406 kts | 213° |
| 2026-04-30 13:17 | 42.80626 | -5.75819 | 32966 ft | 405 kts | 212° |
| 2026-04-30 13:18 | 42.78196 | -5.77758 | 33023 ft | 405 kts | 212° |
| 2026-04-30 13:18 | 42.70889 | -5.83576 | 33053 ft | 409 kts | 212° |
| 2026-04-30 13:19 | 42.65959 | -5.87491 | 33062 ft | 411 kts | 212° |
| 2026-04-30 13:19 | 42.60999 | -5.91422 | 33037 ft | 414 kts | 212° |
| 2026-04-30 13:20 | 42.56023 | -5.95357 | 33014 ft | 414 kts | 212° |
| 2026-04-30 13:20 | 42.51049 | -5.99284 | 33003 ft | 415 kts | 212° |
| 2026-04-30 13:21 | 42.46018 | -6.03250 | 33385 ft | 418 kts | 212° |
| 2026-04-30 13:21 | 42.43515 | -6.05219 | 33755 ft | 414 kts | 212° |
| 2026-04-30 13:22 | 42.38551 | -6.09119 | 34298 ft | 412 kts | 212° |
| 2026-04-30 13:22 | 42.36069 | -6.11067 | 34475 ft | 413 kts | 212° |
| 2026-04-30 13:22 | 42.31097 | -6.14965 | 34896 ft | 412 kts | 212° |
| 2026-04-30 13:23 | 42.23608 | -6.20821 | 34884 ft | 413 kts | 212° |
| 2026-04-30 13:24 | 42.13721 | -6.28525 | 34905 ft | 409 kts | 212° |
| 2026-04-30 13:25 | 42.03894 | -6.36158 | 34908 ft | 407 kts | 212° |
| 2026-04-30 13:26 | 41.91592 | -6.45674 | 34919 ft | 410 kts | 212° |
| 2026-04-30 13:28 | 41.79162 | -6.55246 | 34911 ft | 414 kts | 211° |
| 2026-04-30 13:28 | 41.71667 | -6.60997 | 34923 ft | 414 kts | 211° |
| 2026-04-30 13:29 | 41.61196 | -6.67406 | 34938 ft | 414 kts | 204° |
| 2026-04-30 13:31 | 41.47948 | -6.74859 | 34939 ft | 413 kts | 204° |
| 2026-04-30 13:32 | 41.34801 | -6.82331 | 34942 ft | 412 kts | 204° |
| 2026-04-30 13:33 | 41.24272 | -6.88293 | 34955 ft | 411 kts | 204° |
| 2026-04-30 13:34 | 41.16378 | -6.92749 | 34953 ft | 410 kts | 204° |
| 2026-04-30 13:35 | 41.05871 | -6.98661 | 34964 ft | 410 kts | 204° |
| 2026-04-30 13:36 | 40.95359 | -7.04556 | 34970 ft | 410 kts | 203° |
| 2026-04-30 13:36 | 40.87461 | -7.08971 | 34975 ft | 411 kts | 203° |
| 2026-04-30 13:37 | 40.79548 | -7.13383 | 34977 ft | 412 kts | 203° |
| 2026-04-30 13:38 | 40.71626 | -7.17789 | 34985 ft | 412 kts | 203° |
| 2026-04-30 13:38 | 40.66340 | -7.20722 | 35086 ft | 413 kts | 203° |
| 2026-04-30 13:39 | 40.61082 | -7.23635 | 35095 ft | 413 kts | 202° |
| 2026-04-30 13:40 | 40.53167 | -7.28011 | 35088 ft | 410 kts | 202° |
| 2026-04-30 13:40 | 40.47863 | -7.30936 | 35090 ft | 411 kts | 202° |
| 2026-04-30 13:41 | 40.42626 | -7.33820 | 35091 ft | 411 kts | 202° |
| 2026-04-30 13:41 | 40.37344 | -7.36724 | 35093 ft | 412 kts | 202° |
| 2026-04-30 13:42 | 40.32056 | -7.39626 | 35100 ft | 412 kts | 202° |
| 2026-04-30 13:42 | 40.24118 | -7.43973 | 35096 ft | 412 kts | 202° |
| 2026-04-30 13:43 | 40.18829 | -7.46863 | 35100 ft | 412 kts | 202° |
| 2026-04-30 13:43 | 40.13550 | -7.49743 | 35121 ft | 410 kts | 202° |
| 2026-04-30 13:44 | 40.08281 | -7.52613 | 35097 ft | 410 kts | 202° |
| 2026-04-30 13:44 | 40.03015 | -7.55476 | 35122 ft | 409 kts | 202° |
| 2026-04-30 13:45 | 39.95083 | -7.59780 | 35099 ft | 413 kts | 202° |
| 2026-04-30 13:46 | 39.89772 | -7.62655 | 35104 ft | 414 kts | 202° |
| 2026-04-30 13:46 | 39.84444 | -7.65535 | 35096 ft | 415 kts | 202° |
| 2026-04-30 13:47 | 39.79112 | -7.68412 | 35099 ft | 415 kts | 202° |
| 2026-04-30 13:47 | 39.73777 | -7.71286 | 35088 ft | 415 kts | 202° |
| 2026-04-30 13:48 | 39.68451 | -7.74151 | 35095 ft | 414 kts | 202° |
| 2026-04-30 13:48 | 39.63170 | -7.76987 | 35097 ft | 414 kts | 202° |
| 2026-04-30 13:49 | 39.57844 | -7.79841 | 35088 ft | 414 kts | 202° |
| 2026-04-30 13:49 | 39.52526 | -7.82687 | 35088 ft | 413 kts | 202° |
| 2026-04-30 13:50 | 39.47212 | -7.85526 | 35097 ft | 413 kts | 202° |
| 2026-04-30 13:50 | 39.40118 | -7.89309 | 35091 ft | 412 kts | 202° |
| 2026-04-30 13:51 | 39.34856 | -7.92110 | 35086 ft | 412 kts | 202° |
| 2026-04-30 13:51 | 39.29558 | -7.94925 | 35090 ft | 412 kts | 202° |
| 2026-04-30 13:52 | 39.24261 | -7.97736 | 35090 ft | 412 kts | 202° |
| 2026-04-30 13:52 | 39.18960 | -8.00544 | 35089 ft | 412 kts | 202° |
| 2026-04-30 13:53 | 39.13623 | -8.03229 | 35091 ft | 412 kts | 199° |
| 2026-04-30 13:53 | 39.08197 | -8.05615 | 35088 ft | 413 kts | 198° |
| 2026-04-30 13:54 | 39.02749 | -8.07966 | 35079 ft | 413 kts | 198° |
| 2026-04-30 13:54 | 38.97296 | -8.10342 | 35091 ft | 414 kts | 199° |
| 2026-04-30 13:55 | 38.91843 | -8.12735 | 35091 ft | 415 kts | 199° |
| 2026-04-30 13:55 | 38.86382 | -8.15134 | 35091 ft | 415 kts | 199° |
| 2026-04-30 13:56 | 38.80912 | -8.17535 | 35085 ft | 416 kts | 199° |
| 2026-04-30 13:56 | 38.75435 | -8.19934 | 35085 ft | 416 kts | 199° |
| 2026-04-30 13:57 | 38.69955 | -8.22331 | 35084 ft | 416 kts | 199° |
| 2026-04-30 13:57 | 38.64470 | -8.24726 | 35086 ft | 416 kts | 199° |
| 2026-04-30 13:58 | 38.56249 | -8.28309 | 35088 ft | 416 kts | 199° |
| 2026-04-30 13:59 | 38.50769 | -8.30692 | 35086 ft | 416 kts | 199° |
| 2026-04-30 13:59 | 38.45288 | -8.33072 | 35086 ft | 416 kts | 199° |
| 2026-04-30 14:00 | 38.39807 | -8.35447 | 35096 ft | 416 kts | 199° |
| 2026-04-30 14:00 | 38.31605 | -8.38996 | 35092 ft | 414 kts | 199° |
| 2026-04-30 14:01 | 38.26145 | -8.41353 | 35093 ft | 414 kts | 199° |
| 2026-04-30 14:01 | 38.20689 | -8.43705 | 35100 ft | 414 kts | 199° |
| 2026-04-30 14:02 | 38.15226 | -8.46057 | 35090 ft | 414 kts | 199° |
| 2026-04-30 14:02 | 38.09762 | -8.48404 | 35084 ft | 415 kts | 199° |
| 2026-04-30 14:03 | 38.04289 | -8.50752 | 35087 ft | 415 kts | 199° |
| 2026-04-30 14:03 | 37.98850 | -8.53082 | 35093 ft | 416 kts | 199° |
| 2026-04-30 14:04 | 37.93365 | -8.55428 | 35085 ft | 416 kts | 199° |
| 2026-04-30 14:04 | 37.87871 | -8.57774 | 35084 ft | 417 kts | 199° |
| 2026-04-30 14:05 | 37.82377 | -8.60117 | 35081 ft | 417 kts | 199° |
| 2026-04-30 14:05 | 37.76875 | -8.62458 | 35087 ft | 417 kts | 199° |
| 2026-04-30 14:06 | 37.68613 | -8.65968 | 35090 ft | 418 kts | 199° |
| 2026-04-30 14:07 | 37.60345 | -8.69472 | 35072 ft | 418 kts | 200° |
| 2026-04-30 14:08 | 37.52077 | -8.72968 | 35078 ft | 418 kts | 200° |
| 2026-04-30 14:08 | 37.43809 | -8.76456 | 35073 ft | 417 kts | 200° |
| 2026-04-30 14:09 | 37.38307 | -8.78773 | 35076 ft | 417 kts | 200° |
| 2026-04-30 14:10 | 37.30061 | -8.82237 | 35078 ft | 416 kts | 200° |
| 2026-04-30 14:10 | 37.24564 | -8.84543 | 35076 ft | 416 kts | 200° |
| 2026-04-30 14:11 | 37.19074 | -8.86842 | 35074 ft | 416 kts | 200° |
| 2026-04-30 14:11 | 37.13580 | -8.89139 | 35063 ft | 416 kts | 200° |
| 2026-04-30 14:12 | 37.08086 | -8.91433 | 35075 ft | 416 kts | 201° |
| 2026-04-30 14:12 | 37.02598 | -8.93721 | 35071 ft | 416 kts | 201° |
| 2026-04-30 14:13 | 36.97110 | -8.96005 | 35069 ft | 416 kts | 201° |
| 2026-04-30 14:13 | 36.91614 | -8.98289 | 35075 ft | 416 kts | 201° |
| 2026-04-30 14:14 | 36.86122 | -9.00568 | 35065 ft | 416 kts | 201° |
| 2026-04-30 14:14 | 36.80634 | -9.02841 | 35072 ft | 416 kts | 201° |
| 2026-04-30 14:15 | 36.75145 | -9.05112 | 35066 ft | 416 kts | 201° |
| 2026-04-30 14:15 | 36.69655 | -9.07380 | 35067 ft | 416 kts | 201° |
| 2026-04-30 14:16 | 36.64165 | -9.09644 | 35058 ft | 416 kts | 201° |
| 2026-04-30 14:16 | 36.58670 | -9.11908 | 35064 ft | 416 kts | 201° |
| 2026-04-30 14:17 | 36.53177 | -9.14166 | 35060 ft | 416 kts | 201° |
| 2026-04-30 14:17 | 36.47681 | -9.16423 | 35062 ft | 416 kts | 201° |
| 2026-04-30 14:18 | 36.42183 | -9.18677 | 35062 ft | 416 kts | 201° |
| 2026-04-30 14:18 | 36.33943 | -9.22049 | 35054 ft | 415 kts | 201° |
| 2026-04-30 14:19 | 36.25706 | -9.25412 | 35060 ft | 415 kts | 201° |
| 2026-04-30 14:20 | 36.20217 | -9.27649 | 35057 ft | 415 kts | 201° |
| 2026-04-30 14:20 | 36.12024 | -9.30983 | 35040 ft | 415 kts | 201° |
| 2026-04-30 14:21 | 36.06536 | -9.33212 | 35051 ft | 415 kts | 201° |
| 2026-04-30 14:22 | 35.98274 | -9.36561 | 35055 ft | 415 kts | 201° |
| 2026-04-30 14:22 | 35.90404 | -9.40759 | 35049 ft | 412 kts | 208° |
| 2026-04-30 14:23 | 35.80094 | -9.46947 | 35041 ft | 412 kts | 211° |
| 2026-04-30 14:24 | 35.72325 | -9.51523 | 35057 ft | 413 kts | 210° |
| 2026-04-30 14:25 | 35.61934 | -9.57602 | 35041 ft | 414 kts | 210° |
| 2026-04-30 14:26 | 35.54126 | -9.62159 | 35042 ft | 414 kts | 210° |
| 2026-04-30 14:27 | 35.46307 | -9.66711 | 35045 ft | 415 kts | 210° |
| 2026-04-30 14:27 | 35.41089 | -9.69744 | 35039 ft | 415 kts | 210° |
| 2026-04-30 14:28 | 35.33260 | -9.74286 | 35041 ft | 415 kts | 210° |
| 2026-04-30 14:28 | 35.28043 | -9.77307 | 35043 ft | 415 kts | 210° |
| 2026-04-30 14:29 | 35.18492 | -9.82828 | 35039 ft | 415 kts | 210° |
| 2026-04-30 14:31 | 35.04582 | -9.90842 | 35030 ft | 415 kts | 210° |
| 2026-04-30 14:31 | 34.96735 | -9.95350 | 35036 ft | 416 kts | 210° |
| 2026-04-30 14:32 | 34.88865 | -9.99862 | 35035 ft | 417 kts | 210° |
| 2026-04-30 14:33 | 34.83612 | -10.02867 | 35036 ft | 418 kts | 210° |
| 2026-04-30 14:33 | 34.75715 | -10.07378 | 35029 ft | 418 kts | 209° |
| 2026-04-30 14:34 | 34.70451 | -10.10379 | 35031 ft | 418 kts | 209° |
| 2026-04-30 14:34 | 34.66071 | -10.12873 | 35030 ft | 419 kts | 209° |
| 2026-04-30 14:35 | 34.58156 | -10.17373 | 35027 ft | 419 kts | 209° |
| 2026-04-30 14:36 | 34.52876 | -10.20369 | 35018 ft | 419 kts | 209° |
| 2026-04-30 14:36 | 34.47598 | -10.23360 | 35023 ft | 419 kts | 209° |
| 2026-04-30 14:37 | 34.42316 | -10.26349 | 35026 ft | 419 kts | 209° |
| 2026-04-30 14:37 | 34.37030 | -10.29336 | 35031 ft | 419 kts | 209° |
| 2026-04-30 14:38 | 34.31743 | -10.32320 | 35020 ft | 419 kts | 209° |
| 2026-04-30 14:38 | 34.26450 | -10.35303 | 35020 ft | 419 kts | 208° |
| 2026-04-30 14:39 | 34.21163 | -10.38278 | 35022 ft | 419 kts | 208° |
| 2026-04-30 14:39 | 34.15876 | -10.41249 | 35020 ft | 419 kts | 208° |
| 2026-04-30 14:40 | 34.07935 | -10.45704 | 35020 ft | 420 kts | 208° |
| 2026-04-30 14:40 | 34.02673 | -10.48651 | 35000 ft | 420 kts | 208° |
| 2026-04-30 14:41 | 33.97384 | -10.51609 | 35021 ft | 419 kts | 208° |
| 2026-04-30 14:41 | 33.92085 | -10.54569 | 35020 ft | 419 kts | 208° |
| 2026-04-30 14:42 | 33.86788 | -10.57522 | 35019 ft | 420 kts | 208° |
| 2026-04-30 14:42 | 33.81497 | -10.60470 | 35025 ft | 419 kts | 208° |
| 2026-04-30 14:43 | 33.76186 | -10.63424 | 35020 ft | 422 kts | 208° |
| 2026-04-30 14:43 | 33.70840 | -10.66394 | 35014 ft | 424 kts | 208° |
| 2026-04-30 14:44 | 33.65471 | -10.69372 | 35014 ft | 426 kts | 208° |
| 2026-04-30 14:44 | 33.60086 | -10.72354 | 35016 ft | 426 kts | 208° |
| 2026-04-30 14:45 | 33.54701 | -10.75332 | 35010 ft | 426 kts | 208° |
| 2026-04-30 14:45 | 33.49326 | -10.78301 | 35009 ft | 425 kts | 208° |
| 2026-04-30 14:46 | 33.43961 | -10.81260 | 35004 ft | 423 kts | 207° |
| 2026-04-30 14:46 | 33.38622 | -10.84200 | 35003 ft | 422 kts | 207° |
| 2026-04-30 14:47 | 33.33300 | -10.87128 | 35011 ft | 420 kts | 207° |
| 2026-04-30 14:47 | 33.28026 | -10.90026 | 35012 ft | 419 kts | 207° |
| 2026-04-30 14:48 | 33.22727 | -10.92933 | 35003 ft | 419 kts | 207° |
| 2026-04-30 14:48 | 33.17435 | -10.95833 | 34969 ft | 418 kts | 208° |
| 2026-04-30 14:49 | 33.12139 | -10.98731 | 34986 ft | 419 kts | 207° |
| 2026-04-30 14:49 | 33.06830 | -11.01633 | 34986 ft | 420 kts | 207° |
| 2026-04-30 14:50 | 32.98829 | -11.05998 | 34983 ft | 423 kts | 207° |
| 2026-04-30 14:51 | 32.90780 | -11.10380 | 34979 ft | 425 kts | 207° |
| 2026-04-30 14:52 | 32.82690 | -11.14775 | 34981 ft | 427 kts | 207° |
| 2026-04-30 14:52 | 32.74586 | -11.19169 | 34981 ft | 427 kts | 207° |
| 2026-04-30 14:53 | 32.66483 | -11.23554 | 34980 ft | 426 kts | 207° |
| 2026-04-30 14:54 | 32.55709 | -11.29370 | 34980 ft | 425 kts | 207° |
| 2026-04-30 14:55 | 32.47648 | -11.33712 | 34977 ft | 424 kts | 208° |
| 2026-04-30 14:56 | 32.36928 | -11.39473 | 34972 ft | 422 kts | 208° |
| 2026-04-30 14:57 | 32.28911 | -11.43772 | 34978 ft | 422 kts | 208° |
| 2026-04-30 14:58 | 32.18257 | -11.49472 | 34980 ft | 421 kts | 208° |
| 2026-04-30 14:58 | 32.10244 | -11.53749 | 34981 ft | 422 kts | 208° |
| 2026-04-30 15:00 | 31.96888 | -11.60859 | 34986 ft | 421 kts | 208° |
| 2026-04-30 15:01 | 31.86211 | -11.66527 | 34989 ft | 421 kts | 208° |
| 2026-04-30 15:01 | 31.78203 | -11.70769 | 34983 ft | 420 kts | 208° |
| 2026-04-30 15:02 | 31.72870 | -11.73589 | 34987 ft | 420 kts | 208° |
| 2026-04-30 15:03 | 31.59561 | -11.80612 | 34991 ft | 419 kts | 208° |
| 2026-04-30 15:04 | 31.46280 | -11.87598 | 34990 ft | 418 kts | 208° |
| 2026-04-30 15:06 | 31.33034 | -11.94544 | 34998 ft | 417 kts | 208° |
| 2026-04-30 15:07 | 31.22485 | -12.00060 | 34982 ft | 417 kts | 208° |
| 2026-04-30 15:08 | 31.11910 | -12.05577 | 35013 ft | 416 kts | 208° |
| 2026-04-30 15:09 | 30.98695 | -12.12451 | 35000 ft | 416 kts | 208° |
| 2026-04-30 15:10 | 30.88143 | -12.17925 | 35004 ft | 414 kts | 208° |
| 2026-04-30 15:11 | 30.72381 | -12.26078 | 35014 ft | 412 kts | 208° |
| 2026-04-30 15:13 | 30.59285 | -12.32831 | 35004 ft | 411 kts | 208° |
| 2026-04-30 15:14 | 30.49016 | -12.38547 | 35001 ft | 405 kts | 220° |
| 2026-04-30 15:14 | 30.42274 | -12.44413 | 35020 ft | 404 kts | 220° |
| 2026-04-30 15:17 | 30.21515 | -12.62224 | 35022 ft | 425 kts | 225° |
| 2026-04-30 15:18 | 30.09799 | -12.72168 | 34069 ft | 409 kts | 222° |
| 2026-04-30 15:19 | 30.02353 | -12.77016 | 32880 ft | 407 kts | 217° |